sensor_id;sensor_type;location;lat;lon;timestamp;pressure;altitude;pressure_sealevel;temperature;humidity
42671;BME280;28283;55.426;37.756;2023-01-26T00:42:26;100113.97;;;-3.01;84.68
42671;BME280;28283;55.426;37.756;2023-01-26T00:47:30;99950.81;;;-4.27;84.30
42671;BME280;28283;55.426;37.756;2023-01-26T00:52:59;100123.44;;;-3.27;83.94
42671;BME280;28283;55.426;37.756;2023-01-26T00:58:01;100093.69;;;-3.13;83.98
42671;BME280;28283;55.426;37.756;2023-01-26T01:03:04;100082.41;;;-3.15;82.65
42671;BME280;28283;55.426;37.756;2023-01-26T01:08:05;100019.69;;;-3.36;82.19
42671;BME280;28283;55.426;37.756;2023-01-26T01:13:05;100087.94;;;-3.20;82.16
42671;BME280;28283;55.426;37.756;2023-01-26T01:18:06;100058.69;;;-3.42;82.97
42671;BME280;28283;55.426;37.756;2023-01-26T01:23:09;100073.31;;;-3.10;82.04
42671;BME280;28283;55.426;37.756;2023-01-26T01:28:10;99906.38;;;-4.59;82.54
42671;BME280;28283;55.426;37.756;2023-01-26T01:33:11;100063.72;;;-3.25;82.15
42671;BME280;28283;55.426;37.756;2023-01-26T01:38:11;99955.06;;;-4.25;83.26
42671;BME280;28283;55.426;37.756;2023-01-26T01:43:12;100054.44;;;-3.45;82.96
42671;BME280;28283;55.426;37.756;2023-01-26T01:48:27;100025.44;;;-3.72;83.34
42671;BME280;28283;55.426;37.756;2023-01-26T01:53:34;99978.53;;;-3.93;83.18
42671;BME280;28283;55.426;37.756;2023-01-26T01:58:38;100055.94;;;-3.55;83.62
42671;BME280;28283;55.426;37.756;2023-01-26T02:03:41;100006.56;;;-3.65;82.66
42671;BME280;28283;55.426;37.756;2023-01-26T02:08:47;99924.47;;;-4.26;82.74
42671;BME280;28283;55.426;37.756;2023-01-26T02:13:49;100021.69;;;-3.68;82.54
42671;BME280;28283;55.426;37.756;2023-01-26T02:18:57;99997.69;;;-3.62;81.57
42671;BME280;28283;55.426;37.756;2023-01-26T02:24:08;99911.38;;;-4.26;81.39
42671;BME280;28283;55.426;37.756;2023-01-26T02:29:10;100003.19;;;-3.38;81.28
42671;BME280;28283;55.426;37.756;2023-01-26T02:34:10;100052.84;;;-3.19;82.04
42671;BME280;28283;55.426;37.756;2023-01-26T02:39:33;100054.53;;;-3.47;82.13
42671;BME280;28283;55.426;37.756;2023-01-26T02:44:39;99974.88;;;-3.76;81.92
42671;BME280;28283;55.426;37.756;2023-01-26T02:49:41;99957.72;;;-3.81;80.61
42671;BME280;28283;55.426;37.756;2023-01-26T02:54:50;100000.28;;;-3.48;81.03
42671;BME280;28283;55.426;37.756;2023-01-26T03:00:33;99924.59;;;-3.98;80.88
42671;BME280;28283;55.426;37.756;2023-01-26T03:05:34;99881.66;;;-4.41;81.50
42671;BME280;28283;55.426;37.756;2023-01-26T03:10:34;100020.66;;;-3.51;82.19
42671;BME280;28283;55.426;37.756;2023-01-26T03:15:35;99986.97;;;-3.88;83.07
42671;BME280;28283;55.426;37.756;2023-01-26T03:20:42;100017.09;;;-3.65;83.11
42671;BME280;28283;55.426;37.756;2023-01-26T03:26:01;100017.75;;;-3.61;83.16
42671;BME280;28283;55.426;37.756;2023-01-26T03:31:24;99944.00;;;-4.01;82.87
42671;BME280;28283;55.426;37.756;2023-01-26T03:36:28;99869.34;;;-4.40;81.01
42671;BME280;28283;55.426;37.756;2023-01-26T03:41:28;99989.78;;;-3.48;82.64
42671;BME280;28283;55.426;37.756;2023-01-26T03:46:47;99906.69;;;-4.20;81.84
42671;BME280;28283;55.426;37.756;2023-01-26T03:52:07;99990.16;;;-3.54;81.42
42671;BME280;28283;55.426;37.756;2023-01-26T03:57:28;99917.38;;;-4.09;81.32
42671;BME280;28283;55.426;37.756;2023-01-26T04:02:29;99883.78;;;-4.33;81.42
42671;BME280;28283;55.426;37.756;2023-01-26T04:07:48;100012.59;;;-3.34;81.16
42671;BME280;28283;55.426;37.756;2023-01-26T04:13:08;99994.19;;;-3.62;81.26
42671;BME280;28283;55.426;37.756;2023-01-26T04:18:27;100004.69;;;-3.62;82.12
42671;BME280;28283;55.426;37.756;2023-01-26T04:23:46;99986.97;;;-3.73;81.85
42671;BME280;28283;55.426;37.756;2023-01-26T04:28:47;100016.91;;;-3.47;81.75
42671;BME280;28283;55.426;37.756;2023-01-26T04:33:48;100003.56;;;-3.44;81.84
42671;BME280;28283;55.426;37.756;2023-01-26T04:38:48;100009.56;;;-3.28;80.43
42671;BME280;28283;55.426;37.756;2023-01-26T04:43:56;99983.59;;;-3.75;81.22
42671;BME280;28283;55.426;37.756;2023-01-26T04:48:58;100029.38;;;-3.65;81.68
42671;BME280;28283;55.426;37.756;2023-01-26T04:53:58;100004.72;;;-3.48;81.51
42671;BME280;28283;55.426;37.756;2023-01-26T05:04:33;99970.00;;;-3.82;81.05
42671;BME280;28283;55.426;37.756;2023-01-26T05:09:34;100018.69;;;-3.62;81.94
42671;BME280;28283;55.426;37.756;2023-01-26T05:14:35;99922.34;;;-4.19;81.28
42671;BME280;28283;55.426;37.756;2023-01-26T05:19:35;99999.13;;;-3.29;81.32
42671;BME280;28283;55.426;37.756;2023-01-26T05:24:36;99830.75;;;-4.38;80.82
42671;BME280;28283;55.426;37.756;2023-01-26T05:29:37;100007.44;;;-3.50;81.36
42671;BME280;28283;55.426;37.756;2023-01-26T05:34:38;99863.38;;;-4.42;81.47
42671;BME280;28283;55.426;37.756;2023-01-26T05:39:43;99960.03;;;-3.91;82.16
42671;BME280;28283;55.426;37.756;2023-01-26T05:44:44;99885.78;;;-4.22;81.21
42671;BME280;28283;55.426;37.756;2023-01-26T05:49:44;100004.81;;;-3.50;81.31
